Time;durP1;ratioP1;P1;durP2;ratioP2;P2;SDS_P1;SDS_P2;PMS_P1;PMS_P2;Temp;Humidity;BMP_temperature;BMP_pressure;BME280_temperature;BME280_humidity;BME280_pressure;Samples;Min_cycle;Max_cycle;Signal;HPM_P1;HPM_P2
2022/03/22 00:01:50;;;;;;;;;23.50;21.75;;;;;12.76;100.00;102261.22;4990816;28;45350;-79
2022/03/22 00:04:20;;;;;;;;;18.00;17.25;;;;;12.67;100.00;102242.59;4972129;28;47240;-77
2022/03/22 00:06:46;;;;;;;;;17.75;15.25;;;;;12.82;100.00;102266.34;4990754;28;45102;-78
2022/03/22 00:09:11;;;;;;;;;18.75;17.25;;;;;12.60;100.00;102238.41;4990866;28;45191;-78
2022/03/22 00:11:37;;;;;;;;;21.00;18.75;;;;;11.05;100.00;101976.47;4990915;28;45219;-78
2022/03/22 00:14:03;;;;;;;;;18.25;17.00;;;;;12.82;100.00;102270.94;4990036;28;45507;-80
2022/03/22 00:16:29;;;;;;;;;21.75;17.00;;;;;12.81;100.00;102277.34;4989679;28;45313;-78
2022/03/22 00:18:55;;;;;;;;;19.50;19.50;;;;;11.85;100.00;102133.19;4990574;28;45106;-79
2022/03/22 00:21:20;;;;;;;;;18.00;16.33;;;;;12.81;100.00;102277.34;4990099;28;45158;-77
2022/03/22 00:23:47;;;;;;;;;22.00;19.25;;;;;11.85;100.00;102117.69;4987540;28;45323;-80
2022/03/22 00:26:15;;;;;;;;;18.50;16.75;;;;;12.79;100.00;102274.72;4988320;28;45236;-77
2022/03/22 00:28:41;;;;;;;;;19.00;16.25;;;;;12.80;100.00;102281.94;4989679;28;45219;-77
2022/03/22 00:31:07;;;;;;;;;16.67;15.67;;;;;12.44;100.00;102222.84;4989597;28;45360;-77
2022/03/22 00:33:32;;;;;;;;;15.33;15.33;;;;;12.08;100.00;102165.63;4972864;28;47197;-77
2022/03/22 00:35:59;;;;;;;;;21.33;15.67;;;;;12.63;100.00;102254.66;4988993;28;45407;-77
2022/03/22 00:38:26;;;;;;;;;18.00;14.25;;;;;12.81;100.00;102294.59;4990648;28;45257;-77
2022/03/22 00:40:52;;;;;;;;;17.75;16.50;;;;;12.80;100.00;102291.97;4989938;28;45253;-75
2022/03/22 00:43:18;;;;;;;;;19.00;17.00;;;;;12.25;100.00;102194.75;4989156;28;45541;-77
2022/03/22 00:45:43;;;;;;;;;16.00;14.00;;;;;12.78;100.00;102292.06;4990164;28;45072;-77
2022/03/22 00:48:14;;;;;;;;;18.75;17.50;;;;;12.78;100.00;102294.78;4990145;28;45304;-77
2022/03/22 00:50:44;;;;;;;;;14.67;14.00;;;;;12.24;100.00;102219.38;4989619;28;45172;-77
2022/03/22 00:53:12;;;;;;;;;16.50;15.25;;;;;12.14;100.00;102184.38;4989213;28;46002;-74
2022/03/22 00:55:40;;;;;;;;;18.00;16.50;;;;;12.58;100.00;102263.06;4988459;28;45165;-77
2022/03/22 00:58:05;;;;;;;;;21.25;19.00;;;;;12.71;100.00;102282.41;4989268;28;45163;-77
2022/03/22 01:00:31;;;;;;;;;15.67;15.67;;;;;12.45;100.00;102242.81;4988245;28;45138;-77
2022/03/22 01:02:59;;;;;;;;;14.50;14.50;;;;;12.70;100.00;102286.97;4988087;28;46158;-77
2022/03/22 01:05:26;;;;;;;;;19.00;18.00;;;;;12.18;100.00;102199.63;4989745;28;45171;-78
2022/03/22 01:07:55;;;;;;;;;17.00;16.00;;;;;12.69;100.00;102287.06;4989621;28;45131;-77
2022/03/22 01:10:22;;;;;;;;;20.25;17.50;;;;;12.67;100.00;102286.25;4989278;28;45294;-76
2022/03/22 01:12:48;;;;;;;;;18.25;15.50;;;;;12.52;100.00;102262.47;4989266;28;46218;-77
2022/03/22 01:15:20;;;;;;;;;20.00;16.25;;;;;12.17;100.00;102194.25;4989022;28;45482;-77
2022/03/22 01:17:52;;;;;;;;;17.75;16.50;;;;;12.57;100.00;102265.84;4989284;28;45370;-76
2022/03/22 01:20:21;;;;;;;;;14.50;14.50;;;;;12.42;100.00;102245.72;4989287;28;45078;-78
2022/03/22 01:22:48;;;;;;;;;17.00;16.75;;;;;12.64;100.00;102281.84;4986932;28;45576;-77
2022/03/22 01:25:16;;;;;;;;;14.75;14.00;;;;;12.64;100.00;102281.84;4988974;28;45235;-77
2022/03/22 01:27:43;;;;;;;;;18.75;16.25;;;;;12.38;100.00;102234.06;4984227;28;45201;-76
2022/03/22 01:30:12;;;;;;;;;20.50;16.50;;;;;12.64;100.00;102275.50;4988601;28;45143;-77
2022/03/22 01:32:38;;;;;;;;;17.67;15.33;;;;;12.62;100.00;102275.59;4988474;28;45515;-78
2022/03/22 01:35:05;;;;;;;;;18.00;17.00;;;;;12.32;100.00;102231.66;4989018;28;45134;-77
2022/03/22 01:37:31;;;;;;;;;15.00;15.00;;;;;12.32;100.00;102228.94;4989162;28;45153;-77
2022/03/22 01:39:57;;;;;;;;;17.33;17.33;;;;;12.59;100.00;102277.59;4989595;28;45288;-77
2022/03/22 01:42:23;;;;;;;;;17.33;14.33;;;;;12.58;100.00;102275.81;4988754;28;46069;-77
2022/03/22 01:44:49;;;;;;;;;17.75;17.75;;;;;10.97;100.00;102003.16;4987036;28;45307;-78
2022/03/22 01:47:20;;;;;;;;;17.33;15.67;;;;;12.27;100.00;102228.28;4987455;28;45452;-78
2022/03/22 01:49:47;;;;;;;;;18.50;15.00;;;;;11.80;100.00;102141.53;4988731;28;44952;-77
2022/03/22 01:52:17;;;;;;;;;17.33;17.00;;;;;12.51;100.00;102277.97;4988594;28;45294;-77
2022/03/22 01:54:43;;;;;;;;;17.25;16.75;;;;;12.50;100.00;102270.75;4988405;28;45923;-77
2022/03/22 01:57:10;;;;;;;;;20.33;18.00;;;;;12.50;100.00;102272.59;4988036;28;45121;-79
2022/03/22 01:59:36;;;;;;;;;17.25;15.50;;;;;12.49;100.00;102276.28;4987305;28;45115;-77
2022/03/22 02:07:31;;;;;;;;;18.33;16.33;;;;;11.85;100.00;102166.75;4988597;28;45403;-77
2022/03/22 02:09:57;;;;;;;;;18.75;14.75;;;;;12.17;100.00;102216.09;4970497;28;45086;-79
2022/03/22 02:12:23;;;;;;;;;21.00;14.33;;;;;11.90;100.00;102182.88;4988152;28;46167;-80
2022/03/22 02:14:48;;;;;;;;;17.67;16.00;;;;;12.27;100.00;102249.22;4987053;28;45337;-78
2022/03/22 02:17:14;;;;;;;;;17.33;15.67;;;;;12.42;100.00;102265.69;4988809;28;45542;-77
2022/03/22 02:19:40;;;;;;;;;18.33;16.33;;;;;11.59;100.00;102120.81;4989071;28;45198;-77
2022/03/22 02:22:12;;;;;;;;;16.25;16.25;;;;;12.12;100.00;102221.75;4988374;28;45219;-80
2022/03/22 02:24:38;;;;;;;;;15.75;15.50;;;;;11.89;100.00;102183.84;4985538;28;45169;-78
2022/03/22 02:27:05;;;;;;;;;18.00;16.00;;;;;12.32;100.00;102252.59;4988449;28;45427;-77
2022/03/22 02:29:31;;;;;;;;;17.67;13.00;;;;;12.00;100.00;102196.94;4988334;28;45236;-77
2022/03/22 02:31:56;;;;;;;;;17.33;15.67;;;;;12.38;100.00;102277.72;4970070;28;46408;-79
2022/03/22 02:34:22;;;;;;;;;18.00;17.00;;;;;11.74;100.00;102160.94;4988649;28;45256;-77
2022/03/22 02:36:47;;;;;;;;;21.00;16.67;;;;;12.39;100.00;102276.75;4988526;28;45336;-77
2022/03/22 02:39:13;;;;;;;;;19.00;18.00;;;;;12.12;100.00;102229.06;4988607;28;45200;-76
2022/03/22 02:41:38;;;;;;;;;16.67;16.67;;;;;12.40;100.00;102272.16;4987568;28;46011;-76
2022/03/22 02:44:04;;;;;;;;;18.75;18.00;;;;;12.40;100.00;102269.44;4987635;28;45083;-75
2022/03/22 02:46:29;;;;;;;;;22.00;16.33;;;;;12.41;100.00;102276.66;4986200;28;45797;-75
2022/03/22 02:48:55;;;;;;;;;19.00;15.67;;;;;12.36;100.00;102260.53;4987939;28;45194;-74
2022/03/22 02:51:20;;;;;;;;;21.67;17.33;;;;;12.39;100.00;102271.28;4987728;28;45997;-78
2022/03/22 02:53:46;;;;;;;;;20.75;18.50;;;;;12.24;100.00;102247.53;4987967;28;45166;-77
2022/03/22 02:56:12;;;;;;;;;24.00;16.75;;;;;12.37;100.00;102269.63;4986967;28;45053;-76
2022/03/22 02:58:38;;;;;;;;;21.50;17.75;;;;;11.87;100.00;102183.94;4987756;28;45242;-76
2022/03/22 03:01:03;;;;;;;;;16.00;14.33;;;;;11.77;100.00;102168.97;4988095;28;45395;-76
2022/03/22 03:03:29;;;;;;;;;19.00;17.33;;;;;12.34;100.00;102272.50;4987873;28;45413;-76
2022/03/22 03:05:54;;;;;;;;;16.33;16.00;;;;;11.88;100.00;102193.00;4986477;28;45725;-76
2022/03/22 03:08:21;;;;;;;;;21.25;18.50;;;;;12.01;100.00;102220.50;4988222;28;45284;-78
2022/03/22 03:10:47;;;;;;;;;22.00;17.00;;;;;12.33;100.00;102284.38;4987753;28;45319;-76
2022/03/22 03:13:12;;;;;;;;;18.00;14.75;;;;;12.33;100.00;102278.91;4988197;28;45345;-78
2022/03/22 03:15:38;;;;;;;;;16.75;16.50;;;;;12.33;100.00;102278.91;4970017;28;45573;-76
2022/03/22 03:18:03;;;;;;;;;17.50;17.50;;;;;12.33;100.00;102285.25;4988274;28;45385;-77
2022/03/22 03:20:30;;;;;;;;;24.00;17.25;;;;;12.31;100.00;102276.22;4987796;28;45455;-78
2022/03/22 03:22:55;;;;;;;;;19.00;17.25;;;;;12.26;100.00;102266.53;4987800;28;45145;-76
2022/03/22 03:25:21;;;;;;;;;18.00;18.00;;;;;12.32;100.00;102280.75;4987514;28;45022;-76
2022/03/22 03:27:47;;;;;;;;;18.75;13.00;;;;;12.27;100.00;102274.66;4987715;28;45253;-80
2022/03/22 03:30:13;;;;;;;;;17.00;17.00;;;;;12.31;100.00;102283.53;4986460;28;45472;-77
2022/03/22 03:32:38;;;;;;;;;16.00;16.00;;;;;11.68;100.00;102178.47;4988075;28;45105;-77
2022/03/22 03:35:05;;;;;;;;;17.75;17.75;;;;;11.57;100.00;102161.78;4985456;28;45164;-76
2022/03/22 03:37:34;;;;;;;;;16.67;15.00;;;;;11.55;100.00;102160.06;4987406;28;45117;-82
2022/03/22 03:40:00;;;;;;;;;19.50;17.75;;;;;11.67;100.00;102173.97;4987619;28;45196;-80
2022/03/22 03:42:25;;;;;;;;;20.00;19.50;;;;;11.75;100.00;102195.38;4987248;28;45135;-80
2022/03/22 03:47:34;;;;;;;;;20.50;19.00;;;;;12.10;100.00;102261.81;4987525;28;45157;-77
2022/03/22 03:50:02;;;;;;;;;18.00;15.75;;;;;12.25;100.00;102284.72;4987290;28;45609;-80
2022/03/22 03:52:30;;;;;;;;;18.00;14.33;;;;;12.16;100.00;102274.28;4987282;28;45016;-77
2022/03/22 03:54:57;;;;;;;;;22.67;21.33;;;;;12.07;100.00;102258.38;4989657;28;45218;-76
2022/03/22 03:57:24;;;;;;;;;21.75;17.25;;;;;11.88;100.00;102225.69;4990177;28;45532;-76
2022/03/22 03:59:50;;;;;;;;;16.00;15.25;;;;;12.06;100.00;102265.66;4990157;28;45256;-80
2022/03/22 04:02:17;;;;;;;;;19.25;18.25;;;;;12.18;100.00;102289.59;4990549;28;45383;-76
2022/03/22 04:04:43;;;;;;;;;21.50;16.50;;;;;12.10;100.00;102278.19;4990740;28;45165;-76
2022/03/22 04:07:11;;;;;;;;;19.00;17.00;;;;;11.66;100.00;102207.63;4990623;28;45154;-79
2022/03/22 04:09:38;;;;;;;;;20.25;18.50;;;;;12.16;100.00;102298.81;4990269;28;45255;-78
2022/03/22 04:12:05;;;;;;;;;22.75;17.25;;;;;12.15;100.00;102306.09;4990315;28;45331;-79
2022/03/22 04:14:30;;;;;;;;;18.50;17.75;;;;;11.64;100.00;102220.44;4989673;28;45217;-81
2022/03/22 04:16:58;;;;;;;;;23.50;18.25;;;;;11.81;100.00;102256.88;4990441;28;45135;-76
2022/03/22 04:19:26;;;;;;;;;17.25;15.25;;;;;12.00;100.00;102286.88;4990430;28;45240;-74
2022/03/22 04:21:52;;;;;;;;;22.75;21.00;;;;;12.12;100.00;102306.28;4990670;28;45289;-80
2022/03/22 04:24:20;;;;;;;;;20.50;18.25;;;;;10.79;100.00;102072.94;4989058;28;45069;-77
2022/03/22 04:26:46;;;;;;;;;21.75;18.50;;;;;12.09;100.00;102300.97;4990502;28;45011;-81
2022/03/22 04:34:43;;;;;;;;;23.75;21.00;;;;;11.64;100.00;102238.63;4978055;28;45305;-80
2022/03/22 04:37:13;;;;;;;;;23.25;22.50;;;;;12.06;100.00;102309.28;4990225;28;45279;-77
2022/03/22 04:39:40;;;;;;;;;24.25;22.75;;;;;12.05;100.00;102310.25;4989999;28;45666;-77
2022/03/22 04:42:06;;;;;;;;;22.75;18.25;;;;;11.75;100.00;102266.22;4989347;28;45113;-77
2022/03/22 04:44:33;;;;;;;;;24.50;24.25;;;;;12.05;100.00;102317.53;4989784;28;45016;-77
2022/03/22 04:46:59;;;;;;;;;21.00;18.75;;;;;11.89;100.00;102295.59;4989726;28;45369;-77
2022/03/22 04:49:26;;;;;;;;;23.00;19.75;;;;;11.83;100.00;102291.31;4989489;28;45189;-76
2022/03/22 04:57:20;;;;;;;;;22.75;21.75;;;;;10.77;100.00;102118.38;4989809;28;45168;-77
2022/03/22 04:59:47;;;;;;;;;18.50;18.00;;;;;11.24;100.00;102194.19;4990045;28;45582;-74
2022/03/22 05:02:13;;;;;;;;;20.50;20.50;;;;;11.98;100.00;102318.81;4989350;28;45058;-77
2022/03/22 05:04:38;;;;;;;;;22.75;18.25;;;;;11.97;100.00;102328.81;4989717;28;45334;-76
2022/03/22 05:07:04;;;;;;;;;27.50;23.50;;;;;11.36;100.00;102228.16;4989026;28;45244;-77
2022/03/22 05:09:30;;;;;;;;;22.00;19.75;;;;;11.82;100.00;102305.03;4989454;28;45172;-77
2022/03/22 05:11:56;;;;;;;;;19.00;18.50;;;;;11.94;100.00;102331.69;4989255;28;45327;-77
2022/03/22 05:14:22;;;;;;;;;21.25;19.25;;;;;11.94;100.00;102334.41;4990019;28;45300;-77
2022/03/22 05:16:48;;;;;;;;;21.25;19.25;;;;;11.91;100.00;102331.81;4988567;28;45390;-79
2022/03/22 05:19:13;;;;;;;;;23.25;21.00;;;;;11.89;100.00;102339.19;4989415;28;45569;-77
2022/03/22 05:21:40;;;;;;;;;22.00;18.75;;;;;11.81;100.00;102327.72;4989644;28;45282;-76
2022/03/22 05:24:07;;;;;;;;;24.00;22.00;;;;;11.58;100.00;102293.41;4990080;28;45348;-79
2022/03/22 05:26:32;;;;;;;;;20.75;20.50;;;;;11.87;100.00;102339.28;4989451;28;45109;-78
2022/03/22 05:28:58;;;;;;;;;23.00;19.00;;;;;11.27;100.00;102237.63;4988907;28;45326;-77
2022/03/22 05:31:23;;;;;;;;;22.75;22.75;;;;;11.50;100.00;102287.41;4989267;28;45118;-81
2022/03/22 05:33:49;;;;;;;;;30.25;23.25;;;;;11.83;100.00;102343.09;4989172;28;45392;-77
2022/03/22 05:36:15;;;;;;;;;24.00;21.75;;;;;11.52;100.00;102293.69;4989712;28;44949;-76
2022/03/22 05:38:41;;;;;;;;;20.00;18.33;;;;;11.81;100.00;102344.97;4988730;28;45245;-76
2022/03/22 05:41:07;;;;;;;;;23.00;22.25;;;;;11.65;100.00;102324.81;4989152;28;45107;-78
2022/03/22 05:43:33;;;;;;;;;22.50;21.00;;;;;11.29;100.00;102276.53;4988126;28;45311;-80
2022/03/22 05:45:58;;;;;;;;;24.75;18.50;;;;;11.08;100.00;102234.84;5001326;28;44751;-76
2022/03/22 05:48:24;;;;;;;;;26.00;22.00;;;;;11.34;100.00;102282.66;4984539;28;47256;-76
2022/03/22 05:50:50;;;;;;;;;22.75;21.00;;;;;11.74;100.00;102357.09;4976894;28;45536;-77
2022/03/22 05:53:15;;;;;;;;;24.75;23.00;;;;;10.91;100.00;102226.59;4988212;28;45244;-78
2022/03/22 05:55:41;;;;;;;;;21.50;20.50;;;;;11.75;100.00;102368.88;4989397;28;45140;-77
2022/03/22 05:58:08;;;;;;;;;24.25;21.50;;;;;11.74;100.00;102372.56;4971455;28;45486;-82
2022/03/22 06:00:34;;;;;;;;;19.50;19.50;;;;;11.42;100.00;102318.63;4988697;28;45152;-77
2022/03/22 06:03:00;;;;;;;;;24.50;21.75;;;;;11.69;100.00;102378.22;4987223;28;45597;-76
2022/03/22 06:05:28;;;;;;;;;26.75;24.00;;;;;11.66;100.00;102376.53;4988087;28;45272;-78
2022/03/22 06:07:55;;;;;;;;;24.75;21.00;;;;;11.54;100.00;102362.59;4988659;28;45263;-81
2022/03/22 06:10:20;;;;;;;;;25.25;25.25;;;;;11.28;100.00;102323.78;4988686;28;45026;-77
2022/03/22 06:12:48;;;;;;;;;23.00;21.75;;;;;11.63;100.00;102390.28;4989357;28;45169;-76
2022/03/22 06:15:24;;;;;;;;;26.25;22.50;;;;;11.62;100.00;102390.38;4987867;28;45138;-76
2022/03/22 06:17:51;;;;;;;;;23.25;21.50;;;;;11.53;100.00;102379.88;4988344;28;45596;-76
2022/03/22 06:20:19;;;;;;;;;24.50;22.50;;;;;11.60;100.00;102394.97;4988439;28;45240;-77
2022/03/22 06:22:45;;;;;;;;;23.50;21.75;;;;;9.95;100.00;102132.88;4988698;28;45345;-80
2022/03/22 06:25:13;;;;;;;;;25.25;22.75;;;;;11.51;100.00;102389.97;4988914;28;45059;-76
2022/03/22 06:27:39;;;;;;;;;29.50;24.50;;;;;11.21;100.00;102335.03;4988356;28;45833;-78
2022/03/22 06:30:06;;;;;;;;;19.25;15.75;;;;;11.58;100.00;102399.63;4970928;28;45531;-77
2022/03/22 06:32:38;;;;;;;;;25.50;21.50;;;;;11.57;100.00;102403.31;4988557;28;45130;-76
2022/03/22 06:35:04;;;;;;;;;26.25;21.75;;;;;11.41;100.00;102384.06;4970514;28;45988;-77
2022/03/22 06:37:29;;;;;;;;;25.50;21.50;;;;;11.44;100.00;102389.34;4987977;28;45317;-78
2022/03/22 06:39:55;;;;;;;;;25.00;22.75;;;;;11.44;100.00;102400.22;4987475;28;45342;-77
2022/03/22 06:42:20;;;;;;;;;24.00;21.00;;;;;11.45;100.00;102402.00;4987934;28;45011;-77
2022/03/22 06:44:45;;;;;;;;;22.25;21.50;;;;;11.47;100.00;102396.50;4982144;28;45236;-77
2022/03/22 06:47:11;;;;;;;;;27.00;25.50;;;;;11.46;100.00;102408.38;4988827;28;46133;-77
2022/03/22 06:49:36;;;;;;;;;30.00;24.50;;;;;11.33;100.00;102399.84;4986924;28;45258;-77
2022/03/22 06:52:01;;;;;;;;;23.75;22.75;;;;;10.20;100.00;102215.13;4985618;28;45154;-77
2022/03/22 06:54:27;;;;;;;;;25.75;22.50;;;;;11.29;100.00;102392.75;4988072;28;45161;-77
2022/03/22 06:56:53;;;;;;;;;25.00;25.00;;;;;11.52;100.00;102436.19;4970227;28;47242;-77
2022/03/22 06:59:18;;;;;;;;;26.50;22.50;;;;;11.52;100.00;102421.69;4988012;28;45050;-76
2022/03/22 07:01:43;;;;;;;;;31.25;24.50;;;;;11.52;100.00;102432.59;4988539;28;45087;-77
2022/03/22 07:04:09;;;;;;;;;30.75;28.25;;;;;11.43;100.00;102403.91;4987413;28;45153;-78
2022/03/22 07:06:34;;;;;;;;;25.25;24.75;;;;;11.36;100.00;102405.16;4986467;28;45164;-77
2022/03/22 07:09:00;;;;;;;;;23.25;23.25;;;;;11.51;100.00;102433.56;4988195;28;45325;-77
2022/03/22 07:14:09;;;;;;;;;26.75;23.25;;;;;11.34;100.00;102394.31;4988148;28;45070;-78
2022/03/22 07:16:36;;;;;;;;;27.50;25.75;;;;;11.43;100.00;102412.97;4986002;28;45434;-78
2022/03/22 07:19:02;;;;;;;;;30.75;27.25;;;;;11.03;100.00;102351.22;4988257;28;45300;-79
2022/03/22 07:21:29;;;;;;;;;24.75;23.50;;;;;11.21;100.00;102375.88;4987883;28;45057;-79
2022/03/22 07:23:55;;;;;;;;;34.50;27.50;;;;;11.55;100.00;102432.44;4987380;28;45092;-78
2022/03/22 07:26:20;;;;;;;;;25.50;23.50;;;;;11.39;100.00;102407.72;4988031;28;46370;-77
2022/03/22 07:28:46;;;;;;;;;32.00;28.25;;;;;11.20;100.00;102372.25;4988170;28;45175;-80
2022/03/22 07:31:11;;;;;;;;;29.50;28.25;;;;;11.53;100.00;102424.34;4990906;28;45329;-78
2022/03/22 07:33:37;;;;;;;;;24.25;22.75;;;;;11.61;100.00;102441.25;4972580;28;45296;-77
2022/03/22 07:36:04;;;;;;;;;29.25;28.25;;;;;11.24;100.00;102364.81;4989857;28;45574;-78
2022/03/22 07:38:29;;;;;;;;;24.50;22.50;;;;;11.18;100.00;102355.97;4989991;28;45421;-79
2022/03/22 07:40:55;;;;;;;;;32.50;29.75;;;;;11.59;100.00;102424.06;4972658;28;45404;-78
2022/03/22 07:43:20;;;;;;;;;31.50;29.25;;;;;11.22;100.00;102350.41;4990610;28;45181;-77
2022/03/22 07:45:46;;;;;;;;;30.50;25.25;;;;;11.70;100.00;102439.94;4972997;28;45759;-80
2022/03/22 07:48:11;;;;;;;;;32.25;31.75;;;;;11.53;100.00;102404.41;4987616;28;45664;-77
2022/03/22 07:53:21;;;;;;;;;30.75;28.50;;;;;11.18;100.00;102347.81;4991236;28;45051;-77
2022/03/22 07:55:46;;;;;;;;;30.50;28.50;;;;;11.18;100.00;102339.66;4989577;28;45434;-77
2022/03/22 07:58:11;;;;;;;;;30.00;30.00;;;;;11.78;100.00;102443.22;4991162;28;45165;-77
2022/03/22 08:00:39;;;;;;;;;38.00;32.75;;;;;11.79;100.00;102442.25;4990949;28;45169;-77
2022/03/22 08:03:08;;;;;;;;;45.00;36.25;;;;;11.21;100.00;102337.75;4990952;28;45152;-76
2022/03/22 08:05:37;;;;;;;;;40.00;32.00;;;;;11.85;100.00;102461.06;4990353;28;46064;-77
2022/03/22 08:08:04;;;;;;;;;35.25;33.00;;;;;11.78;100.00;102424.13;4989435;28;45217;-78
2022/03/22 08:10:31;;;;;;;;;40.00;33.25;;;;;11.56;100.00;102396.09;4989354;28;45194;-79
2022/03/22 08:12:59;;;;;;;;;33.75;31.00;;;;;11.92;100.00;102464.44;4989123;28;45106;-77
2022/03/22 08:15:25;;;;;;;;;37.25;31.75;;;;;11.81;100.00;102434.00;4988735;28;45857;-77
2022/03/22 08:17:50;;;;;;;;;31.00;29.00;;;;;11.79;100.00;102422.28;4990622;28;45190;-77
2022/03/22 08:20:16;;;;;;;;;39.25;33.50;;;;;11.94;100.00;102447.03;4990646;28;45129;-76
2022/03/22 08:22:59;;;;;;;;;37.00;31.50;;;;;12.01;100.00;102452.19;4990717;28;45254;-76
2022/03/22 08:25:30;;;;;;;;;40.25;33.00;;;;;12.03;100.00;102456.66;4990277;28;45266;-77
2022/03/22 08:27:57;;;;;;;;;31.25;28.00;;;;;11.84;100.00;102415.72;4990754;28;45214;-76
2022/03/22 08:30:24;;;;;;;;;33.75;32.00;;;;;11.99;100.00;102444.09;4973384;28;45438;-76
2022/03/22 08:32:51;;;;;;;;;31.00;29.75;;;;;12.07;100.00;102451.94;4989306;28;45004;-76
2022/03/22 08:35:18;;;;;;;;;41.25;29.25;;;;;12.10;100.00;102470.88;4990435;28;46685;-76
2022/03/22 08:37:44;;;;;;;;;32.00;30.00;;;;;12.12;100.00;102456.22;4990796;28;45403;-76
2022/03/22 08:40:10;;;;;;;;;23.75;22.25;;;;;12.12;100.00;102450.78;4989346;28;45397;-78
2022/03/22 08:42:37;;;;;;;;;35.25;30.00;;;;;12.18;100.00;102458.66;4990571;28;45019;-75
2022/03/22 08:45:06;;;;;;;;;35.00;28.25;;;;;11.62;100.00;102358.56;4991604;28;45636;-75
2022/03/22 08:47:34;;;;;;;;;30.25;29.25;;;;;11.97;100.00;102415.16;4990806;28;45470;-76
2022/03/22 08:49:59;;;;;;;;;29.75;27.50;;;;;11.93;95.96;102398.06;4990128;28;45110;-77
2022/03/22 08:52:25;;;;;;;;;29.75;28.50;;;;;12.18;88.27;102436.84;4990758;28;45050;-77
2022/03/22 08:54:51;;;;;;;;;23.75;21.00;;;;;11.79;92.02;102360.50;4989811;28;45692;-76
2022/03/22 08:57:17;;;;;;;;;34.50;29.75;;;;;12.37;76.12;102446.91;4990080;28;45163;-77
2022/03/22 08:59:43;;;;;;;;;30.75;28.50;;;;;12.41;74.76;102449.38;4989635;28;45451;-77
2022/03/22 09:02:09;;;;;;;;;44.00;37.75;;;;;12.41;64.85;102437.59;4986490;28;45421;-78
2022/03/22 09:07:18;;;;;;;;;27.50;27.50;;;;;12.12;71.38;102376.28;4987632;28;46123;-80
2022/03/22 09:09:43;;;;;;;;;29.50;21.00;;;;;11.91;65.41;102323.63;4986342;28;45082;-78
2022/03/22 09:12:09;;;;;;;;;23.25;18.25;;;;;12.44;64.03;102407.44;4997137;28;45527;-76
2022/03/22 09:14:34;;;;;;;;;40.50;32.50;;;;;12.68;56.38;102440.84;4996261;28;45226;-77
2022/03/22 09:17:00;;;;;;;;;25.50;22.75;;;;;12.72;52.18;102446.09;4968494;28;45087;-77
2022/03/22 09:19:25;;;;;;;;;41.00;32.75;;;;;12.46;57.58;102400.06;4990845;28;45003;-77
2022/03/22 09:21:51;;;;;;;;;25.50;24.00;;;;;12.82;47.61;102451.94;4994294;28;45549;-77
2022/03/22 09:24:16;;;;;;;;;27.25;19.00;;;;;12.88;49.77;102457.13;4973426;28;46077;-78
2022/03/22 09:26:41;;;;;;;;;26.25;25.50;;;;;12.94;53.60;102455.94;4989755;28;45290;-77
2022/03/22 09:29:07;;;;;;;;;17.67;16.00;;;;;12.98;49.02;102452.97;4989862;28;45130;-76
2022/03/22 09:31:33;;;;;;;;;41.50;34.25;;;;;13.03;44.63;102458.22;4990116;28;45358;-81
2022/03/22 09:34:00;;;;;;;;;16.33;15.33;;;;;13.05;41.53;102464.47;4989736;28;45326;-76
2022/03/22 09:36:25;;;;;;;;;17.33;17.00;;;;;13.09;41.70;102446.97;4989894;28;44935;-76
2022/03/22 09:38:51;;;;;;;;;18.67;17.33;;;;;13.13;47.79;102453.19;4990005;28;45111;-77
2022/03/22 09:41:16;;;;;;;;;26.33;23.33;;;;;12.68;53.44;102370.78;4989375;28;45141;-76
2022/03/22 09:43:47;;;;;;;;;16.33;16.33;;;;;13.12;42.88;102437.72;4989659;28;45470;-75
2022/03/22 09:46:18;;;;;;;;;18.00;17.00;;;;;13.23;45.51;102455.41;4989608;28;45076;-75
2022/03/22 09:48:44;;;;;;;;;22.75;20.25;;;;;13.26;43.29;102448.88;4989735;28;44976;-78
2022/03/22 09:53:54;;;;;;;;;33.50;31.25;;;;;13.36;59.01;102446.56;4978880;28;45076;-78
2022/03/22 09:56:20;;;;;;;;;29.25;27.75;;;;;13.37;45.18;102449.19;4989470;28;45420;-74
2022/03/22 09:58:45;;;;;;;;;21.00;19.33;;;;;13.31;45.02;102426.78;4989500;28;45090;-76
2022/03/22 10:01:11;;;;;;;;;25.00;20.33;;;;;13.44;41.91;102445.22;4988891;28;45185;-75
2022/03/22 10:03:37;;;;;;;;;20.67;19.00;;;;;13.49;42.92;102439.50;4989060;28;45572;-77
2022/03/22 10:06:05;;;;;;;;;19.67;18.00;;;;;13.52;42.89;102447.53;4989049;28;45133;-76
2022/03/22 10:08:30;;;;;;;;;21.67;18.67;;;;;13.55;42.38;102441.91;4989478;28;45077;-76
2022/03/22 10:11:01;;;;;;;;;25.00;21.00;;;;;13.58;48.45;102440.84;4989341;28;45066;-75
2022/03/22 10:13:28;;;;;;;;;19.33;18.33;;;;;13.53;42.56;102427.44;4988876;28;45742;-78
2022/03/22 10:16:01;;;;;;;;;17.00;17.00;;;;;13.62;45.54;102431.53;4989145;28;45184;-74
2022/03/22 10:18:27;;;;;;;;;21.25;20.75;;;;;13.63;43.97;102439.63;4989224;28;45176;-74
2022/03/22 10:21:01;;;;;;;;;20.33;17.33;;;;;13.40;40.29;102385.34;4987711;28;45346;-76
2022/03/22 10:23:27;;;;;;;;;27.50;20.50;;;;;13.70;43.95;102432.91;4989261;28;45726;-76
2022/03/22 10:26:05;;;;;;;;;22.25;20.00;;;;;13.67;43.08;102423.97;4989024;28;45332;-76
2022/03/22 10:28:31;;;;;;;;;17.67;17.00;;;;;13.64;43.15;102405.03;4971506;28;45039;-74
2022/03/22 10:30:58;;;;;;;;;26.25;21.50;;;;;13.63;40.85;102398.66;4989085;28;45254;-74
2022/03/22 10:33:23;;;;;;;;;33.50;27.25;;;;;13.36;46.36;102360.03;4989154;28;45692;-74
2022/03/22 10:35:49;;;;;;;;;31.25;28.25;;;;;13.82;45.63;102427.75;4988610;28;45356;-74
2022/03/22 10:38:15;;;;;;;;;20.00;20.00;;;;;13.83;42.18;102424.03;4989064;28;45163;-74
2022/03/22 10:40:44;;;;;;;;;26.25;18.25;;;;;13.86;41.13;102423.88;4988780;28;45280;-74
2022/03/22 10:43:18;;;;;;;;;23.00;20.25;;;;;13.89;40.70;102420.97;4989211;28;46439;-73
2022/03/22 10:46:01;;;;;;;;;17.67;17.00;;;;;13.87;41.59;102420.16;4990778;28;45095;-74
2022/03/22 10:48:33;;;;;;;;;20.33;17.33;;;;;13.90;40.43;102418.16;4993812;28;45027;-75
2022/03/22 10:51:00;;;;;;;;;29.25;26.00;;;;;13.95;41.07;102418.78;4991254;28;45187;-75
2022/03/22 10:53:27;;;;;;;;;21.00;19.00;;;;;13.96;39.18;102414.22;4971917;28;46958;-74
2022/03/22 10:55:54;;;;;;;;;26.00;22.75;;;;;14.01;45.44;102425.78;4988909;28;45165;-74
2022/03/22 10:58:25;;;;;;;;;24.50;22.00;;;;;14.01;44.14;102418.44;4988720;28;45176;-74
2022/03/22 11:00:51;;;;;;;;;25.00;19.00;;;;;13.73;45.88;102364.38;4988874;28;45126;-75
2022/03/22 11:03:18;;;;;;;;;22.67;17.67;;;;;14.02;41.15;102405.66;4987831;28;45565;-76
2022/03/22 11:05:50;;;;;;;;;18.33;17.33;;;;;13.98;42.67;102398.59;4987923;28;45185;-75
2022/03/22 11:08:22;;;;;;;;;18.67;18.67;;;;;13.87;39.42;102371.84;4988595;28;45375;-74
2022/03/22 11:10:54;;;;;;;;;17.00;16.00;;;;;14.01;39.72;102391.09;4987975;28;45054;-75
2022/03/22 11:13:23;;;;;;;;;20.75;18.25;;;;;14.18;44.04;102402.94;4988190;28;45114;-74
2022/03/22 11:15:49;;;;;;;;;17.33;16.33;;;;;14.15;40.63;102393.09;4988316;28;45067;-75
2022/03/22 11:18:16;;;;;;;;;20.67;19.33;;;;;13.96;41.54;102354.06;4988074;28;45158;-74
2022/03/22 11:20:52;;;;;;;;;22.50;21.50;;;;;13.75;41.87;102313.25;4988063;28;45086;-76
2022/03/22 11:23:23;;;;;;;;;28.75;26.50;;;;;14.25;47.70;102404.41;4988255;28;45181;-75
2022/03/22 11:25:49;;;;;;;;;20.67;17.00;;;;;13.93;50.15;102346.88;4988512;28;45080;-75
2022/03/22 11:28:21;;;;;;;;;26.00;22.67;;;;;13.95;43.64;102346.81;4970474;28;45214;-75
2022/03/22 11:30:48;;;;;;;;;21.25;20.25;;;;;14.25;45.26;102394.34;4988296;28;45116;-76
2022/03/22 11:36:13;;;;;;;;;21.67;19.00;;;;;14.26;50.95;102392.47;4988537;28;45109;-78